sensor_id;sensor_type;location;lat;lon;timestamp;temperature;humidity
3940;DHT22;1984;48.312;9.244;2023-04-25T00:02:11;6.60;99.90
3940;DHT22;1984;48.312;9.244;2023-04-25T00:04:37;6.60;99.90
3940;DHT22;1984;48.312;9.244;2023-04-25T00:07:03;6.60;99.90
3940;DHT22;1984;48.312;9.244;2023-04-25T00:09:29;6.60;99.90
3940;DHT22;1984;48.312;9.244;2023-04-25T00:11:55;6.60;99.90
3940;DHT22;1984;48.312;9.244;2023-04-25T00:14:20;6.60;99.90
3940;DHT22;1984;48.312;9.244;2023-04-25T00:16:46;6.60;99.90
3940;DHT22;1984;48.312;9.244;2023-04-25T00:19:11;6.70;99.90
3940;DHT22;1984;48.312;9.244;2023-04-25T00:21:38;6.70;99.90
3940;DHT22;1984;48.312;9.244;2023-04-25T00:24:06;6.70;99.90
3940;DHT22;1984;48.312;9.244;2023-04-25T00:26:34;6.70;99.90
3940;DHT22;1984;48.312;9.244;2023-04-25T00:29:01;6.60;99.90
3940;DHT22;1984;48.312;9.244;2023-04-25T00:31:27;6.60;99.90
3940;DHT22;1984;48.312;9.244;2023-04-25T00:33:54;6.70;99.90
3940;DHT22;1984;48.312;9.244;2023-04-25T00:36:19;6.60;99.90
3940;DHT22;1984;48.312;9.244;2023-04-25T00:38:45;6.60;99.90
3940;DHT22;1984;48.312;9.244;2023-04-25T00:41:11;6.70;99.90
3940;DHT22;1984;48.312;9.244;2023-04-25T00:43:37;6.60;99.90
3940;DHT22;1984;48.312;9.244;2023-04-25T00:46:04;6.60;99.90
3940;DHT22;1984;48.312;9.244;2023-04-25T00:48:30;6.60;99.90
3940;DHT22;1984;48.312;9.244;2023-04-25T00:50:59;6.60;99.90
3940;DHT22;1984;48.312;9.244;2023-04-25T00:53:26;6.60;99.90
3940;DHT22;1984;48.312;9.244;2023-04-25T00:55:52;6.50;99.90
3940;DHT22;1984;48.312;9.244;2023-04-25T00:58:19;6.60;99.90
3940;DHT22;1984;48.312;9.244;2023-04-25T01:00:49;6.50;99.90
3940;DHT22;1984;48.312;9.244;2023-04-25T01:03:16;6.50;99.90
3940;DHT22;1984;48.312;9.244;2023-04-25T01:05:43;6.50;99.90
3940;DHT22;1984;48.312;9.244;2023-04-25T01:08:09;6.40;99.90
3940;DHT22;1984;48.312;9.244;2023-04-25T01:10:35;6.50;99.90
3940;DHT22;1984;48.312;9.244;2023-04-25T01:13:01;6.50;99.90
3940;DHT22;1984;48.312;9.244;2023-04-25T01:15:26;6.50;99.90
3940;DHT22;1984;48.312;9.244;2023-04-25T01:17:52;6.60;99.90
3940;DHT22;1984;48.312;9.244;2023-04-25T01:20:21;6.60;99.90
3940;DHT22;1984;48.312;9.244;2023-04-25T01:22:48;6.60;99.90
3940;DHT22;1984;48.312;9.244;2023-04-25T01:25:15;6.60;99.90
3940;DHT22;1984;48.312;9.244;2023-04-25T01:27:41;6.60;99.90
3940;DHT22;1984;48.312;9.244;2023-04-25T01:30:07;6.60;99.90
3940;DHT22;1984;48.312;9.244;2023-04-25T01:32:33;6.60;99.90
3940;DHT22;1984;48.312;9.244;2023-04-25T01:35:05;6.60;99.90
3940;DHT22;1984;48.312;9.244;2023-04-25T01:37:35;6.60;99.90
3940;DHT22;1984;48.312;9.244;2023-04-25T01:40:01;6.60;99.90
3940;DHT22;1984;48.312;9.244;2023-04-25T01:42:27;6.60;99.90
3940;DHT22;1984;48.312;9.244;2023-04-25T01:44:52;6.50;99.90
3940;DHT22;1984;48.312;9.244;2023-04-25T01:47:18;6.50;99.90
3940;DHT22;1984;48.312;9.244;2023-04-25T01:49:44;6.50;99.90
3940;DHT22;1984;48.312;9.244;2023-04-25T01:52:09;6.50;99.90
3940;DHT22;1984;48.312;9.244;2023-04-25T01:54:35;6.40;99.90
3940;DHT22;1984;48.312;9.244;2023-04-25T01:57:00;6.40;99.90
3940;DHT22;1984;48.312;9.244;2023-04-25T01:59:26;6.30;99.90
3940;DHT22;1984;48.312;9.244;2023-04-25T02:01:52;6.30;99.90
3940;DHT22;1984;48.312;9.244;2023-04-25T02:04:18;6.30;99.90
3940;DHT22;1984;48.312;9.244;2023-04-25T02:06:43;6.40;99.90
3940;DHT22;1984;48.312;9.244;2023-04-25T02:09:08;6.40;99.90
3940;DHT22;1984;48.312;9.244;2023-04-25T02:11:34;6.40;99.90
3940;DHT22;1984;48.312;9.244;2023-04-25T02:14:00;6.40;99.90
3940;DHT22;1984;48.312;9.244;2023-04-25T02:16:25;6.50;99.90
3940;DHT22;1984;48.312;9.244;2023-04-25T02:18:51;6.50;99.90
3940;DHT22;1984;48.312;9.244;2023-04-25T02:21:18;6.50;99.90
3940;DHT22;1984;48.312;9.244;2023-04-25T02:23:43;6.50;99.90
3940;DHT22;1984;48.312;9.244;2023-04-25T02:26:11;6.50;99.90
3940;DHT22;1984;48.312;9.244;2023-04-25T02:28:36;6.50;99.90
3940;DHT22;1984;48.312;9.244;2023-04-25T02:31:02;6.50;99.90
3940;DHT22;1984;48.312;9.244;2023-04-25T02:33:27;6.50;99.90
3940;DHT22;1984;48.312;9.244;2023-04-25T02:35:53;6.50;99.90
3940;DHT22;1984;48.312;9.244;2023-04-25T02:38:19;6.50;99.90
3940;DHT22;1984;48.312;9.244;2023-04-25T02:40:44;6.50;99.90
3940;DHT22;1984;48.312;9.244;2023-04-25T02:43:10;6.50;99.90
3940;DHT22;1984;48.312;9.244;2023-04-25T02:45:35;6.50;99.90
3940;DHT22;1984;48.312;9.244;2023-04-25T02:48:02;6.50;99.90
3940;DHT22;1984;48.312;9.244;2023-04-25T02:50:28;6.40;99.90
3940;DHT22;1984;48.312;9.244;2023-04-25T02:52:53;6.40;99.90
3940;DHT22;1984;48.312;9.244;2023-04-25T02:55:19;6.40;99.90
3940;DHT22;1984;48.312;9.244;2023-04-25T02:57:44;6.40;99.90
3940;DHT22;1984;48.312;9.244;2023-04-25T03:00:11;6.40;99.90
3940;DHT22;1984;48.312;9.244;2023-04-25T03:02:37;6.40;99.90
3940;DHT22;1984;48.312;9.244;2023-04-25T03:05:02;6.30;99.90
3940;DHT22;1984;48.312;9.244;2023-04-25T03:07:28;6.30;99.90
3940;DHT22;1984;48.312;9.244;2023-04-25T03:09:54;6.20;99.90
3940;DHT22;1984;48.312;9.244;2023-04-25T03:12:20;6.10;99.90
3940;DHT22;1984;48.312;9.244;2023-04-25T03:14:46;6.10;99.90
3940;DHT22;1984;48.312;9.244;2023-04-25T03:17:11;6.20;99.90
3940;DHT22;1984;48.312;9.244;2023-04-25T03:19:37;6.20;99.90
3940;DHT22;1984;48.312;9.244;2023-04-25T03:22:02;6.20;99.90
3940;DHT22;1984;48.312;9.244;2023-04-25T03:24:28;6.20;99.90
3940;DHT22;1984;48.312;9.244;2023-04-25T03:26:53;6.20;99.90
3940;DHT22;1984;48.312;9.244;2023-04-25T03:29:19;6.20;99.90
3940;DHT22;1984;48.312;9.244;2023-04-25T03:31:49;6.20;99.90
3940;DHT22;1984;48.312;9.244;2023-04-25T03:34:15;6.10;99.90
3940;DHT22;1984;48.312;9.244;2023-04-25T03:36:41;6.10;99.90
3940;DHT22;1984;48.312;9.244;2023-04-25T03:39:06;6.00;99.90
3940;DHT22;1984;48.312;9.244;2023-04-25T03:41:32;6.00;99.90
3940;DHT22;1984;48.312;9.244;2023-04-25T03:43:57;5.90;99.90
3940;DHT22;1984;48.312;9.244;2023-04-25T03:46:23;5.80;99.90
3940;DHT22;1984;48.312;9.244;2023-04-25T03:48:48;5.80;99.90
3940;DHT22;1984;48.312;9.244;2023-04-25T03:51:14;5.70;99.90
3940;DHT22;1984;48.312;9.244;2023-04-25T03:53:39;5.70;99.90
3940;DHT22;1984;48.312;9.244;2023-04-25T03:56:05;5.60;99.90
3940;DHT22;1984;48.312;9.244;2023-04-25T03:58:31;5.50;99.90
3940;DHT22;1984;48.312;9.244;2023-04-25T04:00:56;5.50;99.90
3940;DHT22;1984;48.312;9.244;2023-04-25T04:03:22;5.50;99.90
3940;DHT22;1984;48.312;9.244;2023-04-25T04:05:47;5.50;99.90
3940;DHT22;1984;48.312;9.244;2023-04-25T04:08:13;5.50;99.90
3940;DHT22;1984;48.312;9.244;2023-04-25T04:10:38;5.50;99.90
3940;DHT22;1984;48.312;9.244;2023-04-25T04:13:04;5.40;99.90
3940;DHT22;1984;48.312;9.244;2023-04-25T04:15:29;5.40;99.90
3940;DHT22;1984;48.312;9.244;2023-04-25T04:17:58;5.40;99.90
3940;DHT22;1984;48.312;9.244;2023-04-25T04:20:28;5.40;99.90
3940;DHT22;1984;48.312;9.244;2023-04-25T04:22:53;5.30;99.90
3940;DHT22;1984;48.312;9.244;2023-04-25T04:25:19;5.30;99.90
3940;DHT22;1984;48.312;9.244;2023-04-25T04:27:45;5.30;99.90
3940;DHT22;1984;48.312;9.244;2023-04-25T04:30:11;5.30;99.90
3940;DHT22;1984;48.312;9.244;2023-04-25T04:32:37;5.30;99.90
3940;DHT22;1984;48.312;9.244;2023-04-25T04:35:04;5.30;99.90
3940;DHT22;1984;48.312;9.244;2023-04-25T04:37:30;5.40;99.90
3940;DHT22;1984;48.312;9.244;2023-04-25T04:39:55;5.40;99.90
3940;DHT22;1984;48.312;9.244;2023-04-25T04:42:21;5.40;99.90
3940;DHT22;1984;48.312;9.244;2023-04-25T04:44:46;5.40;99.90
3940;DHT22;1984;48.312;9.244;2023-04-25T04:47:12;5.40;99.90
3940;DHT22;1984;48.312;9.244;2023-04-25T04:49:39;5.40;99.90
3940;DHT22;1984;48.312;9.244;2023-04-25T04:52:05;5.50;99.90
3940;DHT22;1984;48.312;9.244;2023-04-25T04:54:30;5.50;99.90
3940;DHT22;1984;48.312;9.244;2023-04-25T04:56:56;5.40;99.90
3940;DHT22;1984;48.312;9.244;2023-04-25T04:59:21;5.40;99.90
3940;DHT22;1984;48.312;9.244;2023-04-25T05:01:47;5.40;99.90
3940;DHT22;1984;48.312;9.244;2023-04-25T05:04:12;5.40;99.90
3940;DHT22;1984;48.312;9.244;2023-04-25T05:06:38;5.40;99.90
3940;DHT22;1984;48.312;9.244;2023-04-25T05:09:03;5.40;99.90
3940;DHT22;1984;48.312;9.244;2023-04-25T05:11:29;5.40;99.90
3940;DHT22;1984;48.312;9.244;2023-04-25T05:13:55;5.40;99.90
3940;DHT22;1984;48.312;9.244;2023-04-25T05:16:21;5.50;99.90
3940;DHT22;1984;48.312;9.244;2023-04-25T05:18:48;5.70;99.90
3940;DHT22;1984;48.312;9.244;2023-04-25T05:21:13;5.80;99.90
3940;DHT22;1984;48.312;9.244;2023-04-25T05:23:39;6.00;99.90
3940;DHT22;1984;48.312;9.244;2023-04-25T05:26:05;6.00;99.90
3940;DHT22;1984;48.312;9.244;2023-04-25T05:28:31;6.10;99.90
3940;DHT22;1984;48.312;9.244;2023-04-25T05:30:56;6.20;99.90
3940;DHT22;1984;48.312;9.244;2023-04-25T05:33:22;6.20;99.90
3940;DHT22;1984;48.312;9.244;2023-04-25T05:35:47;6.30;99.90
3940;DHT22;1984;48.312;9.244;2023-04-25T05:38:13;6.30;99.90
3940;DHT22;1984;48.312;9.244;2023-04-25T05:40:38;6.40;99.90
3940;DHT22;1984;48.312;9.244;2023-04-25T05:43:04;6.40;99.90
3940;DHT22;1984;48.312;9.244;2023-04-25T05:45:30;6.50;99.90
3940;DHT22;1984;48.312;9.244;2023-04-25T05:47:55;6.60;99.90
3940;DHT22;1984;48.312;9.244;2023-04-25T05:50:21;6.60;99.90
3940;DHT22;1984;48.312;9.244;2023-04-25T05:52:46;6.40;99.90
3940;DHT22;1984;48.312;9.244;2023-04-25T05:55:12;6.30;99.90
3940;DHT22;1984;48.312;9.244;2023-04-25T05:57:37;6.30;99.90
3940;DHT22;1984;48.312;9.244;2023-04-25T06:00:07;6.30;99.90
3940;DHT22;1984;48.312;9.244;2023-04-25T06:02:34;6.30;99.90
3940;DHT22;1984;48.312;9.244;2023-04-25T06:05:00;6.40;99.90
3940;DHT22;1984;48.312;9.244;2023-04-25T06:07:25;6.50;99.90
3940;DHT22;1984;48.312;9.244;2023-04-25T06:09:50;6.50;99.90
3940;DHT22;1984;48.312;9.244;2023-04-25T06:12:16;6.60;99.90
3940;DHT22;1984;48.312;9.244;2023-04-25T06:14:42;6.70;99.90
3940;DHT22;1984;48.312;9.244;2023-04-25T06:17:07;6.80;99.90
3940;DHT22;1984;48.312;9.244;2023-04-25T06:19:34;6.90;99.90
3940;DHT22;1984;48.312;9.244;2023-04-25T06:22:01;7.10;99.90
3940;DHT22;1984;48.312;9.244;2023-04-25T06:24:26;7.30;99.90
3940;DHT22;1984;48.312;9.244;2023-04-25T06:26:52;7.40;99.90
3940;DHT22;1984;48.312;9.244;2023-04-25T06:29:18;7.50;99.90
3940;DHT22;1984;48.312;9.244;2023-04-25T06:31:44;7.40;99.90
3940;DHT22;1984;48.312;9.244;2023-04-25T06:34:09;7.30;99.90
3940;DHT22;1984;48.312;9.244;2023-04-25T06:36:35;7.30;99.90
3940;DHT22;1984;48.312;9.244;2023-04-25T06:39:00;7.40;99.90
3940;DHT22;1984;48.312;9.244;2023-04-25T06:41:26;7.60;99.90
3940;DHT22;1984;48.312;9.244;2023-04-25T06:43:51;7.70;99.90
3940;DHT22;1984;48.312;9.244;2023-04-25T06:46:17;7.80;99.90
3940;DHT22;1984;48.312;9.244;2023-04-25T06:48:42;8.00;99.90
3940;DHT22;1984;48.312;9.244;2023-04-25T06:51:08;8.00;99.90
3940;DHT22;1984;48.312;9.244;2023-04-25T06:53:33;8.10;99.90
3940;DHT22;1984;48.312;9.244;2023-04-25T06:55:59;8.20;99.90
3940;DHT22;1984;48.312;9.244;2023-04-25T06:58:25;8.40;99.90
3940;DHT22;1984;48.312;9.244;2023-04-25T07:00:51;8.30;99.90
3940;DHT22;1984;48.312;9.244;2023-04-25T07:03:17;8.30;99.90
3940;DHT22;1984;48.312;9.244;2023-04-25T07:05:42;8.20;99.90
3940;DHT22;1984;48.312;9.244;2023-04-25T07:08:08;8.00;99.90
3940;DHT22;1984;48.312;9.244;2023-04-25T07:10:33;8.00;99.90
3940;DHT22;1984;48.312;9.244;2023-04-25T07:12:59;8.00;99.90
3940;DHT22;1984;48.312;9.244;2023-04-25T07:15:24;8.00;99.90
3940;DHT22;1984;48.312;9.244;2023-04-25T07:20:21;8.00;99.90
3940;DHT22;1984;48.312;9.244;2023-04-25T07:22:47;8.10;99.90
3940;DHT22;1984;48.312;9.244;2023-04-25T07:25:12;8.20;99.90
3940;DHT22;1984;48.312;9.244;2023-04-25T07:27:38;8.10;99.90
3940;DHT22;1984;48.312;9.244;2023-04-25T07:30:05;8.10;99.90
3940;DHT22;1984;48.312;9.244;2023-04-25T07:32:30;8.10;99.90
3940;DHT22;1984;48.312;9.244;2023-04-25T07:34:56;8.00;99.90
3940;DHT22;1984;48.312;9.244;2023-04-25T07:37:21;7.90;99.90
3940;DHT22;1984;48.312;9.244;2023-04-25T07:39:47;7.80;99.90
3940;DHT22;1984;48.312;9.244;2023-04-25T07:42:13;7.70;99.90
3940;DHT22;1984;48.312;9.244;2023-04-25T07:44:38;7.60;99.90
3940;DHT22;1984;48.312;9.244;2023-04-25T07:47:05;7.70;99.90
3940;DHT22;1984;48.312;9.244;2023-04-25T07:49:33;7.70;99.90
3940;DHT22;1984;48.312;9.244;2023-04-25T07:52:00;7.80;99.90
3940;DHT22;1984;48.312;9.244;2023-04-25T07:54:25;7.80;99.90
3940;DHT22;1984;48.312;9.244;2023-04-25T07:56:51;8.00;99.90
3940;DHT22;1984;48.312;9.244;2023-04-25T07:59:17;8.00;99.90
3940;DHT22;1984;48.312;9.244;2023-04-25T08:01:42;8.10;99.90
3940;DHT22;1984;48.312;9.244;2023-04-25T08:04:08;8.20;99.90
3940;DHT22;1984;48.312;9.244;2023-04-25T08:06:33;8.20;99.90
3940;DHT22;1984;48.312;9.244;2023-04-25T08:08:59;8.30;99.90
3940;DHT22;1984;48.312;9.244;2023-04-25T08:11:25;8.30;99.90
3940;DHT22;1984;48.312;9.244;2023-04-25T08:13:50;8.30;99.90
3940;DHT22;1984;48.312;9.244;2023-04-25T08:16:16;8.40;99.90
3940;DHT22;1984;48.312;9.244;2023-04-25T08:18:41;8.40;99.90
3940;DHT22;1984;48.312;9.244;2023-04-25T08:21:07;8.30;99.90
3940;DHT22;1984;48.312;9.244;2023-04-25T08:23:34;8.30;99.90
3940;DHT22;1984;48.312;9.244;2023-04-25T08:25:59;8.30;99.90
3940;DHT22;1984;48.312;9.244;2023-04-25T08:28:25;8.30;99.90
3940;DHT22;1984;48.312;9.244;2023-04-25T08:30:51;8.40;99.90
3940;DHT22;1984;48.312;9.244;2023-04-25T08:33:16;8.50;99.90
3940;DHT22;1984;48.312;9.244;2023-04-25T08:35:42;8.50;99.90
3940;DHT22;1984;48.312;9.244;2023-04-25T08:38:08;8.40;99.90
3940;DHT22;1984;48.312;9.244;2023-04-25T08:40:38;8.20;99.90
3940;DHT22;1984;48.312;9.244;2023-04-25T08:43:08;8.10;99.90
3940;DHT22;1984;48.312;9.244;2023-04-25T08:45:39;7.80;99.90
3940;DHT22;1984;48.312;9.244;2023-04-25T08:48:09;7.60;99.90
3940;DHT22;1984;48.312;9.244;2023-04-25T08:50:38;7.60;99.90
3940;DHT22;1984;48.312;9.244;2023-04-25T08:53:08;7.40;99.90
3940;DHT22;1984;48.312;9.244;2023-04-25T08:55:35;7.20;99.90
3940;DHT22;1984;48.312;9.244;2023-04-25T08:58:01;7.20;99.90
3940;DHT22;1984;48.312;9.244;2023-04-25T09:00:27;7.00;99.90
3940;DHT22;1984;48.312;9.244;2023-04-25T09:02:53;6.90;99.90
3940;DHT22;1984;48.312;9.244;2023-04-25T09:05:20;6.70;99.90
3940;DHT22;1984;48.312;9.244;2023-04-25T09:07:46;6.80;99.90
3940;DHT22;1984;48.312;9.244;2023-04-25T09:10:11;6.70;99.90
3940;DHT22;1984;48.312;9.244;2023-04-25T09:12:37;6.60;99.90
3940;DHT22;1984;48.312;9.244;2023-04-25T09:15:08;6.50;99.90
3940;DHT22;1984;48.312;9.244;2023-04-25T09:17:33;6.30;99.90
3940;DHT22;1984;48.312;9.244;2023-04-25T09:20:15;6.00;99.90
3940;DHT22;1984;48.312;9.244;2023-04-25T09:22:40;5.80;99.90
3940;DHT22;1984;48.312;9.244;2023-04-25T09:25:10;5.70;99.90
3940;DHT22;1984;48.312;9.244;2023-04-25T09:27:35;5.50;99.90
3940;DHT22;1984;48.312;9.244;2023-04-25T09:30:01;5.40;99.90
3940;DHT22;1984;48.312;9.244;2023-04-25T09:32:27;5.30;99.90
3940;DHT22;1984;48.312;9.244;2023-04-25T09:34:55;5.30;99.90
3940;DHT22;1984;48.312;9.244;2023-04-25T09:37:27;5.30;99.90
3940;DHT22;1984;48.312;9.244;2023-04-25T09:39:55;5.30;99.90
3940;DHT22;1984;48.312;9.244;2023-04-25T09:42:25;5.30;99.90
3940;DHT22;1984;48.312;9.244;2023-04-25T09:44:52;5.40;99.90
3940;DHT22;1984;48.312;9.244;2023-04-25T09:47:18;5.50;99.90
3940;DHT22;1984;48.312;9.244;2023-04-25T09:49:46;5.50;99.90
3940;DHT22;1984;48.312;9.244;2023-04-25T09:52:17;5.50;99.90
3940;DHT22;1984;48.312;9.244;2023-04-25T09:54:43;5.40;99.90
3940;DHT22;1984;48.312;9.244;2023-04-25T09:57:13;5.30;99.90
3940;DHT22;1984;48.312;9.244;2023-04-25T09:59:43;5.40;99.90
3940;DHT22;1984;48.312;9.244;2023-04-25T10:02:09;5.40;99.90
3940;DHT22;1984;48.312;9.244;2023-04-25T10:04:36;5.30;99.90
3940;DHT22;1984;48.312;9.244;2023-04-25T10:07:05;5.30;99.90
3940;DHT22;1984;48.312;9.244;2023-04-25T10:09:32;5.20;99.90
3940;DHT22;1984;48.312;9.244;2023-04-25T10:11:59;5.10;99.90
3940;DHT22;1984;48.312;9.244;2023-04-25T10:14:26;5.10;99.90
3940;DHT22;1984;48.312;9.244;2023-04-25T10:16:52;5.10;99.90
3940;DHT22;1984;48.312;9.244;2023-04-25T10:19:19;5.10;99.90
3940;DHT22;1984;48.312;9.244;2023-04-25T10:21:52;5.20;99.90
3940;DHT22;1984;48.312;9.244;2023-04-25T10:24:20;5.20;99.90
3940;DHT22;1984;48.312;9.244;2023-04-25T10:26:47;5.30;99.90
3940;DHT22;1984;48.312;9.244;2023-04-25T10:29:21;5.30;99.90
3940;DHT22;1984;48.312;9.244;2023-04-25T10:31:48;5.40;99.90
3940;DHT22;1984;48.312;9.244;2023-04-25T10:34:13;5.60;99.90
3940;DHT22;1984;48.312;9.244;2023-04-25T10:36:39;5.70;99.90
3940;DHT22;1984;48.312;9.244;2023-04-25T10:39:05;5.80;99.90
3940;DHT22;1984;48.312;9.244;2023-04-25T10:41:45;5.80;99.90
3940;DHT22;1984;48.312;9.244;2023-04-25T10:44:12;5.60;99.90
3940;DHT22;1984;48.312;9.244;2023-04-25T10:46:38;5.50;99.90
3940;DHT22;1984;48.312;9.244;2023-04-25T10:49:04;5.40;99.90
3940;DHT22;1984;48.312;9.244;2023-04-25T10:51:31;5.40;99.90
3940;DHT22;1984;48.312;9.244;2023-04-25T10:54:04;5.30;99.90
3940;DHT22;1984;48.312;9.244;2023-04-25T10:56:38;5.30;99.90
3940;DHT22;1984;48.312;9.244;2023-04-25T10:59:05;5.20;99.90
3940;DHT22;1984;48.312;9.244;2023-04-25T11:01:46;5.20;99.90
3940;DHT22;1984;48.312;9.244;2023-04-25T11:04:24;5.20;99.90
3940;DHT22;1984;48.312;9.244;2023-04-25T11:07:13;5.30;99.90
3940;DHT22;1984;48.312;9.244;2023-04-25T11:09:45;5.30;99.90
3940;DHT22;1984;48.312;9.244;2023-04-25T11:12:11;5.30;99.90
3940;DHT22;1984;48.312;9.244;2023-04-25T11:14:40;5.20;99.90
3940;DHT22;1984;48.312;9.244;2023-04-25T11:17:05;5.10;99.90
3940;DHT22;1984;48.312;9.244;2023-04-25T11:19:31;5.00;99.90
3940;DHT22;1984;48.312;9.244;2023-04-25T11:21:58;5.00;99.90
3940;DHT22;1984;48.312;9.244;2023-04-25T11:24:32;5.00;99.90
3940;DHT22;1984;48.312;9.244;2023-04-25T11:27:01;5.00;99.90
3940;DHT22;1984;48.312;9.244;2023-04-25T11:29:32;5.10;99.90
3940;DHT22;1984;48.312;9.244;2023-04-25T11:31:59;5.10;99.90
3940;DHT22;1984;48.312;9.244;2023-04-25T11:34:26;5.00;99.90
3940;DHT22;1984;48.312;9.244;2023-04-25T11:36:53;4.90;99.90
3940;DHT22;1984;48.312;9.244;2023-04-25T11:39:19;4.80;99.90
3940;DHT22;1984;48.312;9.244;2023-04-25T11:41:46;4.80;99.90
3940;DHT22;1984;48.312;9.244;2023-04-25T11:44:11;4.90;99.90
3940;DHT22;1984;48.312;9.244;2023-04-25T11:46:37;5.10;99.90
3940;DHT22;1984;48.312;9.244;2023-04-25T11:49:03;5.30;99.90
3940;DHT22;1984;48.312;9.244;2023-04-25T11:51:30;5.50;99.90
3940;DHT22;1984;48.312;9.244;2023-04-25T11:53:57;5.80;99.90
3940;DHT22;1984;48.312;9.244;2023-04-25T11:56:22;6.00;99.90
3940;DHT22;1984;48.312;9.244;2023-04-25T11:59:01;6.10;99.90
3940;DHT22;1984;48.312;9.244;2023-04-25T12:01:29;6.20;99.90
3940;DHT22;1984;48.312;9.244;2023-04-25T12:03:55;6.30;99.90
3940;DHT22;1984;48.312;9.244;2023-04-25T12:06:21;6.40;99.90
3940;DHT22;1984;48.312;9.244;2023-04-25T12:09:03;6.50;99.90
3940;DHT22;1984;48.312;9.244;2023-04-25T12:11:30;6.60;99.90
3940;DHT22;1984;48.312;9.244;2023-04-25T12:14:02;6.90;99.90
3940;DHT22;1984;48.312;9.244;2023-04-25T12:16:28;7.00;99.90
3940;DHT22;1984;48.312;9.244;2023-04-25T12:18:54;7.20;99.90
3940;DHT22;1984;48.312;9.244;2023-04-25T12:21:21;7.30;99.90
3940;DHT22;1984;48.312;9.244;2023-04-25T12:23:46;7.50;99.90
3940;DHT22;1984;48.312;9.244;2023-04-25T12:26:12;7.60;99.90
3940;DHT22;1984;48.312;9.244;2023-04-25T12:28:37;7.50;99.90
3940;DHT22;1984;48.312;9.244;2023-04-25T12:31:05;7.40;99.90
3940;DHT22;1984;48.312;9.244;2023-04-25T12:33:35;7.40;99.90
3940;DHT22;1984;48.312;9.244;2023-04-25T12:36:05;7.30;99.90
3940;DHT22;1984;48.312;9.244;2023-04-25T12:38:38;7.30;99.90
3940;DHT22;1984;48.312;9.244;2023-04-25T12:41:04;7.50;99.90
3940;DHT22;1984;48.312;9.244;2023-04-25T12:43:30;7.60;99.90
3940;DHT22;1984;48.312;9.244;2023-04-25T12:45:56;7.70;99.90
3940;DHT22;1984;48.312;9.244;2023-04-25T12:48:22;7.70;99.90
3940;DHT22;1984;48.312;9.244;2023-04-25T12:50:49;7.70;99.90
3940;DHT22;1984;48.312;9.244;2023-04-25T12:53:15;7.70;99.90
3940;DHT22;1984;48.312;9.244;2023-04-25T12:55:41;7.90;99.90
3940;DHT22;1984;48.312;9.244;2023-04-25T12:58:07;8.00;99.90
3940;DHT22;1984;48.312;9.244;2023-04-25T13:00:32;8.00;99.90
3940;DHT22;1984;48.312;9.244;2023-04-25T13:02:58;8.10;99.90
3940;DHT22;1984;48.312;9.244;2023-04-25T13:05:25;8.10;99.90
3940;DHT22;1984;48.312;9.244;2023-04-25T13:07:50;8.00;99.90
3940;DHT22;1984;48.312;9.244;2023-04-25T13:10:17;8.10;99.90
3940;DHT22;1984;48.312;9.244;2023-04-25T13:12:43;8.10;99.90
3940;DHT22;1984;48.312;9.244;2023-04-25T13:15:09;8.20;99.90
3940;DHT22;1984;48.312;9.244;2023-04-25T13:17:37;8.10;99.90
3940;DHT22;1984;48.312;9.244;2023-04-25T13:20:04;8.00;99.90
3940;DHT22;1984;48.312;9.244;2023-04-25T13:22:31;7.90;99.90
3940;DHT22;1984;48.312;9.244;2023-04-25T13:24:56;7.80;99.90
3940;DHT22;1984;48.312;9.244;2023-04-25T13:27:22;7.70;99.90
3940;DHT22;1984;48.312;9.244;2023-04-25T13:29:48;7.80;99.90
3940;DHT22;1984;48.312;9.244;2023-04-25T13:32:13;7.90;99.90
3940;DHT22;1984;48.312;9.244;2023-04-25T13:34:39;7.90;99.90
3940;DHT22;1984;48.312;9.244;2023-04-25T13:37:04;7.80;99.90
3940;DHT22;1984;48.312;9.244;2023-04-25T13:39:30;7.80;99.90
3940;DHT22;1984;48.312;9.244;2023-04-25T13:41:55;7.90;99.90
3940;DHT22;1984;48.312;9.244;2023-04-25T13:44:21;8.00;99.90
3940;DHT22;1984;48.312;9.244;2023-04-25T13:46:47;8.10;99.90
3940;DHT22;1984;48.312;9.244;2023-04-25T13:49:12;8.20;99.90
3940;DHT22;1984;48.312;9.244;2023-04-25T13:51:38;8.20;99.90
3940;DHT22;1984;48.312;9.244;2023-04-25T13:54:03;8.20;99.90
3940;DHT22;1984;48.312;9.244;2023-04-25T13:56:29;8.40;99.90
3940;DHT22;1984;48.312;9.244;2023-04-25T13:58:55;8.50;99.90
3940;DHT22;1984;48.312;9.244;2023-04-25T14:01:22;8.50;99.90
3940;DHT22;1984;48.312;9.244;2023-04-25T14:03:47;8.60;99.90
3940;DHT22;1984;48.312;9.244;2023-04-25T14:06:13;8.70;99.90
3940;DHT22;1984;48.312;9.244;2023-04-25T14:08:39;8.90;99.90
3940;DHT22;1984;48.312;9.244;2023-04-25T14:11:04;8.90;99.90
3940;DHT22;1984;48.312;9.244;2023-04-25T14:13:30;8.90;99.90
3940;DHT22;1984;48.312;9.244;2023-04-25T14:15:56;8.90;99.90
3940;DHT22;1984;48.312;9.244;2023-04-25T14:18:21;8.60;99.90
3940;DHT22;1984;48.312;9.244;2023-04-25T14:20:48;8.30;99.90
3940;DHT22;1984;48.312;9.244;2023-04-25T14:23:13;8.30;99.90
3940;DHT22;1984;48.312;9.244;2023-04-25T14:25:39;8.30;99.90
3940;DHT22;1984;48.312;9.244;2023-04-25T14:28:05;8.30;99.90
3940;DHT22;1984;48.312;9.244;2023-04-25T14:30:31;8.40;99.90
3940;DHT22;1984;48.312;9.244;2023-04-25T14:32:57;8.40;99.90
3940;DHT22;1984;48.312;9.244;2023-04-25T14:35:23;8.50;99.90
3940;DHT22;1984;48.312;9.244;2023-04-25T14:37:48;8.60;99.90
3940;DHT22;1984;48.312;9.244;2023-04-25T14:40:14;8.60;99.90
3940;DHT22;1984;48.312;9.244;2023-04-25T14:42:40;8.70;99.90
3940;DHT22;1984;48.312;9.244;2023-04-25T14:45:07;8.80;99.90
3940;DHT22;1984;48.312;9.244;2023-04-25T14:47:34;8.80;99.90
3940;DHT22;1984;48.312;9.244;2023-04-25T14:50:00;8.60;99.90
3940;DHT22;1984;48.312;9.244;2023-04-25T14:52:26;8.50;99.90
3940;DHT22;1984;48.312;9.244;2023-04-25T14:54:52;8.30;99.90
3940;DHT22;1984;48.312;9.244;2023-04-25T14:57:17;8.20;99.90
3940;DHT22;1984;48.312;9.244;2023-04-25T14:59:43;8.20;99.90
3940;DHT22;1984;48.312;9.244;2023-04-25T15:02:09;8.10;99.90
3940;DHT22;1984;48.312;9.244;2023-04-25T15:04:34;8.00;99.90
3940;DHT22;1984;48.312;9.244;2023-04-25T15:07:00;8.00;99.90
3940;DHT22;1984;48.312;9.244;2023-04-25T15:09:26;8.00;99.90
3940;DHT22;1984;48.312;9.244;2023-04-25T15:11:51;8.10;99.90
3940;DHT22;1984;48.312;9.244;2023-04-25T15:14:17;8.30;99.90
3940;DHT22;1984;48.312;9.244;2023-04-25T15:16:43;8.40;99.90
3940;DHT22;1984;48.312;9.244;2023-04-25T15:19:09;8.60;99.90
3940;DHT22;1984;48.312;9.244;2023-04-25T15:21:35;8.80;99.90
3940;DHT22;1984;48.312;9.244;2023-04-25T15:24:01;9.00;99.90
3940;DHT22;1984;48.312;9.244;2023-04-25T15:26:27;9.10;99.90
3940;DHT22;1984;48.312;9.244;2023-04-25T15:28:52;9.10;99.90
3940;DHT22;1984;48.312;9.244;2023-04-25T15:31:18;9.10;99.90
3940;DHT22;1984;48.312;9.244;2023-04-25T15:33:44;8.90;99.90
3940;DHT22;1984;48.312;9.244;2023-04-25T15:36:09;8.80;99.90
3940;DHT22;1984;48.312;9.244;2023-04-25T15:38:35;8.90;99.90
3940;DHT22;1984;48.312;9.244;2023-04-25T15:41:01;9.00;99.90
3940;DHT22;1984;48.312;9.244;2023-04-25T15:43:26;8.90;99.90
3940;DHT22;1984;48.312;9.244;2023-04-25T15:45:52;8.90;99.90
3940;DHT22;1984;48.312;9.244;2023-04-25T15:48:18;8.80;99.90
3940;DHT22;1984;48.312;9.244;2023-04-25T15:50:43;8.70;99.90
3940;DHT22;1984;48.312;9.244;2023-04-25T15:53:09;8.80;99.90
3940;DHT22;1984;48.312;9.244;2023-04-25T15:55:35;8.80;99.90
3940;DHT22;1984;48.312;9.244;2023-04-25T15:58:01;8.80;99.90
3940;DHT22;1984;48.312;9.244;2023-04-25T16:00:26;8.90;99.90
3940;DHT22;1984;48.312;9.244;2023-04-25T16:02:52;9.10;99.90
3940;DHT22;1984;48.312;9.244;2023-04-25T16:05:17;9.20;99.90
3940;DHT22;1984;48.312;9.244;2023-04-25T16:07:44;9.30;99.90
3940;DHT22;1984;48.312;9.244;2023-04-25T16:10:11;9.30;99.90
3940;DHT22;1984;48.312;9.244;2023-04-25T16:12:38;9.20;99.90
3940;DHT22;1984;48.312;9.244;2023-04-25T16:15:04;9.20;99.90